Time;durP1;ratioP1;P1;durP2;ratioP2;P2;SDS_P1;SDS_P2;PMS_P1;PMS_P2;Temp;Humidity;BMP_temperature;BMP_pressure;BME280_temperature;BME280_humidity;BME280_pressure;Samples;Min_cycle;Max_cycle;Signal;HPM_P1;HPM_P2
2024/01/24 00:00:34;;;;;;;65.50;41.40;;;;;;;4.36;75.46;102873.66;4954882;28;20131;-83
2024/01/24 00:03:02;;;;;;;64.38;41.97;;;;;;;4.18;75.86;102851.38;4958117;28;20416;-81
2024/01/24 00:05:34;;;;;;;58.75;40.70;;;;;;;4.31;75.27;102859.78;4983144;28;20053;-83
2024/01/24 00:08:10;;;;;;;73.57;40.97;;;;;;;4.30;75.94;102858.06;4961369;28;20088;-84
2024/01/24 00:10:43;;;;;;;65.38;40.03;;;;;;;4.21;75.92;102842.53;4969784;28;20411;-81
2024/01/24 00:13:15;;;;;;;61.08;40.50;;;;;;;4.15;76.18;102833.06;4951424;28;20363;-83
2024/01/24 00:15:43;;;;;;;59.08;39.28;;;;;;;4.03;76.07;102817.59;4990303;28;20045;-81
2024/01/24 00:18:13;;;;;;;64.55;41.67;;;;;;;4.23;76.11;102857.38;4945795;28;20046;-83
2024/01/24 00:20:41;;;;;;;66.75;40.65;;;;;;;3.56;76.44;102736.44;4947311;28;20101;-82
2024/01/24 00:23:10;;;;;;;65.82;42.00;;;;;;;4.09;76.91;102821.81;4947628;28;20046;-83
2024/01/24 00:25:39;;;;;;;64.60;40.88;;;;;;;4.05;76.68;102824.53;4957494;28;20056;-82
2024/01/24 00:28:13;;;;;;;63.35;39.33;;;;;;;3.86;77.05;102781.25;4951979;28;20194;-83
2024/01/24 00:30:46;;;;;;;62.22;38.72;;;;;;;4.36;76.17;102831.59;4945973;28;20120;-82
2024/01/24 00:33:16;;;;;;;71.88;40.55;;;;;;;4.14;75.81;102798.91;4950328;28;20088;-81
2024/01/24 00:35:49;;;;;;;58.50;39.88;;;;;;;4.27;76.35;102837.09;4956170;28;20057;-82
2024/01/24 00:38:21;;;;;;;73.25;40.75;;;;;;;3.79;76.23;102772.66;4987330;28;20607;-81
2024/01/24 00:40:48;;;;;;;62.97;41.00;;;;;;;4.22;76.05;102854.75;4951477;28;20619;-83
2024/01/24 00:43:15;;;;;;;66.28;41.78;;;;;;;4.03;76.36;102828.97;4970840;28;20495;-81
2024/01/24 00:45:47;;;;;;;64.05;41.67;;;;;;;4.13;76.82;102844.50;4947398;28;20133;-81
2024/01/24 00:48:20;;;;;;;64.57;39.90;;;;;;;4.06;76.88;102831.50;4926868;28;20077;-83
2024/01/24 00:50:47;;;;;;;58.28;41.53;;;;;;;4.12;77.03;102863.78;4941940;28;20455;-81
2024/01/24 00:53:26;;;;;;;58.08;39.70;;;;;;;4.09;77.11;102858.63;4947041;28;20202;-82
2024/01/24 00:56:03;;;;;;;67.28;39.85;;;;;;;3.76;77.06;102804.25;4959943;28;20681;-82
2024/01/24 00:58:35;;;;;;;67.47;41.78;;;;;;;4.04;77.13;102856.97;4960695;28;20148;-82
2024/01/24 01:01:20;;;;;;;61.65;39.35;;;;;;;3.68;77.59;102789.59;4948645;28;20292;-82
2024/01/24 01:03:47;;;;;;;69.78;39.53;;;;;;;4.04;77.87;102848.22;4966505;28;20057;-80
2024/01/24 01:06:22;;;;;;;65.45;41.22;;;;;;;3.87;77.28;102817.13;4952408;28;20373;-82
2024/01/24 01:08:55;;;;;;;55.83;39.58;;;;;;;3.93;77.16;102816.97;4942083;28;20049;-81
2024/01/24 01:11:22;;;;;;;60.90;39.85;;;;;;;3.69;77.85;102762.41;4966814;28;20367;-83
2024/01/24 01:13:49;;;;;;;67.18;39.25;;;;;;;4.15;77.46;102796.25;4951249;28;20054;-81
2024/01/24 01:16:21;;;;;;;57.45;37.60;;;;;;;4.31;76.81;102822.97;4966719;28;20386;-81
2024/01/24 01:19:05;;;;;;;57.90;38.67;;;;;;;4.19;77.11;102802.28;4958644;28;20412;-80
2024/01/24 01:21:32;;;;;;;66.75;38.53;;;;;;;4.00;77.07;102786.97;4949255;28;20519;-80
2024/01/24 01:23:59;;;;;;;54.83;37.80;;;;;;;4.10;77.43;102803.34;4938220;28;20591;-81
2024/01/24 01:26:28;;;;;;;53.28;36.22;;;;;;;3.89;77.04;102765.38;4945976;28;20046;-81
2024/01/24 01:29:01;;;;;;;62.85;38.10;;;;;;;3.90;77.47;102769.72;4965022;28;20472;-82
2024/01/24 01:31:41;;;;;;;60.63;38.13;;;;;;;3.96;77.40;102773.97;4936735;28;20331;-81
2024/01/24 01:34:12;;;;;;;61.45;37.58;;;;;;;4.09;77.20;102801.66;4933954;28;20362;-82
2024/01/24 01:36:46;;;;;;;57.75;36.30;;;;;;;4.11;77.69;102818.25;4962264;28;20733;-82
2024/01/24 01:39:23;;;;;;;58.22;38.20;;;;;;;4.11;77.15;102810.38;4930531;28;20613;-83
2024/01/24 01:42:05;;;;;;;60.83;38.20;;;;;;;4.31;76.68;102795.81;4958911;28;20155;-83
2024/01/24 01:44:50;;;;;;;58.85;38.13;;;;;;;4.20;76.47;102743.50;4930412;28;20833;-82
2024/01/24 01:47:33;;;;;;;55.13;36.97;;;;;;;4.03;76.31;102742.22;4953719;28;20394;-82
2024/01/24 01:50:09;;;;;;;58.38;37.88;;;;;;;4.25;76.70;102797.72;4939662;28;20507;-82
2024/01/24 01:52:37;;;;;;;53.47;36.40;;;;;;;4.22;77.00;102820.56;5009808;28;20053;-80
2024/01/24 01:55:11;;;;;;;59.80;36.78;;;;;;;3.81;77.20;102778.72;4968979;28;20685;-83
2024/01/24 01:57:48;;;;;;;51.85;34.65;;;;;;;4.12;77.38;102840.13;4943918;28;20084;-84
2024/01/24 02:00:37;;;;;;;55.90;37.67;;;;;;;3.89;77.51;102790.81;4932478;28;20264;-82
2024/01/24 02:03:04;;;;;;;53.70;35.10;;;;;;;3.99;77.55;102795.78;4958026;28;20507;-83
2024/01/24 02:05:31;;;;;;;64.28;38.63;;;;;;;4.14;77.19;102807.66;4959284;28;20054;-83
2024/01/24 02:07:59;;;;;;;52.25;35.88;;;;;;;4.15;77.13;102795.34;4963891;28;20220;-81
2024/01/24 02:10:29;;;;;;;56.28;37.30;;;;;;;3.89;76.42;102768.00;4948082;28;20283;-80
2024/01/24 02:12:56;;;;;;;54.30;36.65;;;;;;;4.06;76.62;102781.56;4961567;28;20050;-80
2024/01/24 02:15:23;;;;;;;54.25;38.47;;;;;;;4.02;76.73;102752.78;4940891;28;20500;-81
2024/01/24 02:17:50;;;;;;;49.95;36.42;;;;;;;4.31;76.46;102778.25;4945877;28;20042;-81
2024/01/24 02:20:18;;;;;;;51.75;35.78;;;;;;;4.15;76.77;102791.00;4958677;28;20058;-80
2024/01/24 02:22:48;;;;;;;53.47;34.33;;;;;;;4.13;76.43;102789.31;4923905;28;20054;-80
2024/01/24 02:25:15;;;;;;;49.03;34.35;;;;;;;3.15;76.75;102649.09;4912830;28;20567;-82
2024/01/24 02:27:42;;;;;;;56.28;34.78;;;;;;;3.94;76.97;102755.63;4930192;28;20054;-82
2024/01/24 02:30:13;;;;;;;51.78;33.75;;;;;;;4.06;75.75;102718.47;4942832;28;20094;-79
2024/01/24 02:32:40;;;;;;;56.75;35.90;;;;;;;3.87;75.79;102698.00;4911605;28;20389;-79
2024/01/24 02:35:07;;;;;;;51.05;35.58;;;;;;;4.14;76.33;102757.69;4920046;28;20042;-80
2024/01/24 02:37:38;;;;;;;50.28;34.58;;;;;;;4.14;76.81;102756.84;4937556;28;20108;-82
2024/01/24 02:40:06;;;;;;;53.60;37.37;;;;;;;4.19;76.45;102762.84;4948856;28;20547;-81
2024/01/24 02:42:40;;;;;;;54.70;34.83;;;;;;;4.26;76.55;102772.28;4925004;28;20320;-82
2024/01/24 02:45:07;;;;;;;63.15;35.47;;;;;;;4.18;76.46;102787.41;4929931;28;20401;-80
2024/01/24 02:47:34;;;;;;;56.72;35.97;;;;;;;3.93;76.76;102738.13;4929156;28;20498;-82
2024/01/24 02:50:03;;;;;;;51.17;33.17;;;;;;;4.14;76.31;102744.56;4926890;28;20058;-80
2024/01/24 02:52:34;;;;;;;56.30;35.60;;;;;;;4.21;76.28;102753.13;4954062;28;20524;-82
2024/01/24 02:55:01;;;;;;;45.65;32.88;;;;;;;3.58;76.71;102661.09;4936926;28;20098;-81
2024/01/24 02:57:28;;;;;;;58.35;33.95;;;;;;;4.12;77.10;102748.13;4918069;28;20054;-79
2024/01/24 03:00:00;;;;;;;48.72;32.75;;;;;;;4.11;76.56;102704.34;4922597;28;20049;-82
2024/01/24 03:02:31;;;;;;;44.83;31.73;;;;;;;4.12;76.34;102704.28;4927459;28;20054;-82
2024/01/24 03:04:58;;;;;;;47.38;32.28;;;;;;;3.87;75.96;102680.47;4957353;28;20086;-80
2024/01/24 03:07:29;;;;;;;51.80;30.08;;;;;;;4.03;76.34;102728.22;4960832;28;20056;-81
2024/01/24 03:09:56;;;;;;;47.20;32.28;;;;;;;3.55;76.26;102670.84;4935995;28;20045;-79
2024/01/24 03:12:23;;;;;;;47.47;31.88;;;;;;;3.56;76.45;102669.94;4934714;28;20647;-80
2024/01/24 03:14:50;;;;;;;48.00;30.63;;;;;;;3.93;76.98;102747.75;4944309;28;20042;-81
2024/01/24 03:17:18;;;;;;;47.42;30.38;;;;;;;3.81;77.31;102743.69;4933451;28;20064;-80
2024/01/24 03:19:45;;;;;;;45.10;29.60;;;;;;;3.77;77.82;102742.06;4933212;28;20064;-82
2024/01/24 03:22:13;;;;;;;42.90;29.83;;;;;;;3.82;77.46;102714.75;4945944;28;20053;-79
2024/01/24 03:24:44;;;;;;;41.80;29.33;;;;;;;3.51;76.69;102640.31;4928317;28;20050;-81
2024/01/24 03:27:12;;;;;;;43.92;30.73;;;;;;;4.02;77.04;102708.94;4934828;28;20552;-80
2024/01/24 03:29:41;;;;;;;43.92;30.70;;;;;;;4.10;76.48;102708.72;4933264;28;20443;-79
2024/01/24 03:32:07;;;;;;;50.92;29.50;;;;;;;4.07;76.66;102727.22;4933635;28;20053;-79
2024/01/24 03:34:36;;;;;;;38.47;28.58;;;;;;;3.96;77.29;102721.41;4925445;28;20424;-81
2024/01/24 03:37:03;;;;;;;48.53;29.25;;;;;;;3.90;77.29;102711.91;4921481;28;20045;-82
2024/01/24 03:39:30;;;;;;;41.67;29.20;;;;;;;3.82;77.53;102698.13;4955999;28;20526;-81
2024/01/24 03:42:08;;;;;;;36.00;27.85;;;;;;;3.84;77.18;102717.34;4936261;28;20046;-80
2024/01/24 03:44:36;;;;;;;44.33;28.20;;;;;;;3.72;77.34;102708.03;4928945;28;20128;-84
2024/01/24 03:47:09;;;;;;;41.42;27.67;;;;;;;3.71;77.41;102711.53;4948547;28;20358;-80
2024/01/24 03:49:36;;;;;;;41.22;28.30;;;;;;;4.04;76.81;102714.19;4951153;28;20437;-82
2024/01/24 03:52:07;;;;;;;48.47;26.73;;;;;;;4.05;76.24;102694.84;4928090;28;20108;-83
2024/01/24 03:54:35;;;;;;;38.35;25.50;;;;;;;4.14;75.60;102704.25;4945455;28;20042;-80
2024/01/24 03:57:06;;;;;;;38.45;27.10;;;;;;;3.89;76.05;102673.41;4941328;28;20340;-82
2024/01/24 03:59:38;;;;;;;35.90;25.70;;;;;;;3.91;76.51;102699.63;4966835;28;20298;-83
2024/01/24 04:02:05;;;;;;;41.40;23.92;;;;;;;3.87;76.84;102691.00;4945374;28;20397;-82
2024/01/24 04:04:39;;;;;;;40.97;24.35;;;;;;;3.89;76.83;102686.56;4947151;28;20077;-82
2024/01/24 04:07:06;;;;;;;34.00;22.65;;;;;;;3.69;77.07;102675.72;4953316;28;20052;-80
2024/01/24 04:09:33;;;;;;;38.70;22.70;;;;;;;3.76;76.59;102703.53;4925753;28;20054;-81
2024/01/24 04:12:00;;;;;;;36.78;22.40;;;;;;;3.61;76.88;102668.91;4965346;28;20140;-83
2024/01/24 04:14:34;;;;;;;31.88;21.83;;;;;;;3.69;77.05;102676.59;4971746;28;20144;-83
2024/01/24 04:17:13;;;;;;;37.55;25.10;;;;;;;3.73;76.55;102703.63;4962848;28;20442;-81
2024/01/24 04:19:40;;;;;;;31.90;23.27;;;;;;;3.73;77.40;102708.88;4961920;28;20429;-82
2024/01/24 04:22:07;;;;;;;34.05;23.05;;;;;;;3.62;77.66;102696.91;4951874;28;20140;-80
2024/01/24 04:24:34;;;;;;;35.10;24.45;;;;;;;3.45;77.57;102662.34;4955223;28;20060;-82
2024/01/24 04:27:03;;;;;;;34.28;23.80;;;;;;;3.27;77.43;102626.06;4967103;28;20136;-81
2024/01/24 04:29:30;;;;;;;36.53;24.85;;;;;;;3.54;77.92;102685.72;4979113;28;20534;-81
2024/01/24 04:32:03;;;;;;;34.25;24.40;;;;;;;3.44;77.50;102686.88;4985120;28;20136;-80
2024/01/24 04:34:30;;;;;;;35.30;24.65;;;;;;;3.33;77.90;102653.03;4980444;28;20050;-81
2024/01/24 04:37:02;;;;;;;34.78;23.45;;;;;;;3.29;77.92;102640.00;4972900;28;20056;-82
2024/01/24 04:39:32;;;;;;;33.15;25.08;;;;;;;3.25;78.28;102647.09;4930227;28;20424;-81
2024/01/24 04:41:58;;;;;;;31.13;22.90;;;;;;;3.58;78.13;102679.50;4982119;28;20056;-81
2024/01/24 04:44:37;;;;;;;34.60;22.35;;;;;;;3.56;77.92;102689.16;4984848;28;20397;-81
2024/01/24 04:47:04;;;;;;;39.03;24.83;;;;;;;3.15;78.23;102635.97;5004382;28;20479;-82
2024/01/24 04:49:31;;;;;;;31.80;23.52;;;;;;;3.31;78.16;102659.22;5000603;28;20112;-83
2024/01/24 04:52:15;;;;;;;33.92;22.63;;;;;;;3.34;78.03;102669.63;4950730;28;20284;-82
2024/01/24 04:54:42;;;;;;;35.92;22.63;;;;;;;3.21;77.69;102669.94;4967696;28;20566;-81
2024/01/24 04:57:09;;;;;;;37.13;22.83;;;;;;;3.11;78.10;102647.47;4986578;28;20201;-81
2024/01/24 04:59:36;;;;;;;38.70;23.63;;;;;;;3.42;78.35;102691.28;4983586;28;20042;-82
2024/01/24 05:02:21;;;;;;;35.42;23.13;;;;;;;3.51;78.49;102693.69;4992531;28;20553;-82
2024/01/24 05:04:47;;;;;;;31.70;22.40;;;;;;;3.22;78.22;102636.66;4987062;28;20056;-81
2024/01/24 05:07:15;;;;;;;30.38;21.95;;;;;;;3.42;77.57;102667.66;4986030;28;20107;-81
2024/01/24 05:09:42;;;;;;;38.13;25.42;;;;;;;3.22;78.09;102655.03;4990621;28;20438;-83
2024/01/24 05:12:09;;;;;;;30.10;23.58;;;;;;;3.40;78.46;102690.50;4974121;28;20563;-81
2024/01/24 05:14:46;;;;;;;26.48;20.02;;;;;;;3.38;78.24;102682.66;4981936;28;20368;-82
2024/01/24 05:17:15;;;;;;;25.20;17.80;;;;;;;3.44;77.77;102660.59;4994193;28;20049;-81
2024/01/24 05:19:41;;;;;;;32.33;18.58;;;;;;;3.43;77.61;102651.03;4987586;28;20068;-80
2024/01/24 05:22:09;;;;;;;27.30;18.02;;;;;;;3.54;78.02;102682.22;5006766;28;20503;-80
2024/01/24 05:24:43;;;;;;;27.77;18.92;;;;;;;3.52;77.84;102678.78;4969777;28;20107;-81
2024/01/24 05:27:10;;;;;;;24.38;16.17;;;;;;;3.20;77.40;102627.97;5001452;28;20060;-81
2024/01/24 05:29:36;;;;;;;21.60;15.25;;;;;;;2.17;77.64;102446.97;4996117;28;20052;-81
2024/01/24 05:32:06;;;;;;;21.58;14.63;;;;;;;2.80;77.76;102552.06;5014722;28;20053;-80
2024/01/24 05:34:35;;;;;;;22.42;14.82;;;;;;;2.68;77.52;102525.22;4980518;28;20144;-82
2024/01/24 05:37:02;;;;;;;23.23;14.35;;;;;;;3.55;77.13;102658.56;4987153;28;20052;-82
2024/01/24 05:39:31;;;;;;;23.38;14.57;;;;;;;3.47;77.05;102652.66;4995195;28;20057;-82
2024/01/24 05:41:58;;;;;;;26.83;14.98;;;;;;;3.58;76.54;102645.34;4982254;28;20046;-83
2024/01/24 05:44:25;;;;;;;18.70;13.88;;;;;;;3.44;76.59;102613.34;5016210;28;20377;-82
2024/01/24 05:46:52;;;;;;;23.83;16.15;;;;;;;3.71;75.73;102656.38;4992172;28;20334;-82
2024/01/24 05:49:21;;;;;;;28.27;15.35;;;;;;;3.79;74.78;102664.06;4984981;28;20064;-82
2024/01/24 05:51:47;;;;;;;28.70;15.73;;;;;;;3.84;74.70;102654.28;4957923;28;20121;-82
2024/01/24 05:54:19;;;;;;;25.30;16.58;;;;;;;4.03;74.65;102671.25;4966135;28;20051;-82
2024/01/24 05:56:48;;;;;;;22.88;16.55;;;;;;;3.94;74.92;102655.75;4973300;28;20214;-83
2024/01/24 05:59:14;;;;;;;22.27;16.52;;;;;;;3.95;75.02;102648.72;4983885;28;20456;-83
2024/01/24 06:01:42;;;;;;;22.73;15.85;;;;;;;3.91;75.48;102650.59;4995544;28;20045;-81
2024/01/24 06:04:12;;;;;;;30.90;17.85;;;;;;;3.87;75.35;102651.56;4997088;28;20053;-82
2024/01/24 06:06:40;;;;;;;23.27;18.20;;;;;;;3.96;75.79;102669.72;4988885;28;20057;-81
2024/01/24 06:09:08;;;;;;;26.83;17.42;;;;;;;3.86;74.86;102626.22;4984413;28;20079;-82
2024/01/24 06:11:35;;;;;;;26.95;18.55;;;;;;;3.92;74.53;102633.91;4986068;28;20284;-79
2024/01/24 06:14:05;;;;;;;40.30;17.95;;;;;;;4.13;74.69;102676.28;5008221;28;20050;-81
2024/01/24 06:16:31;;;;;;;27.13;16.90;;;;;;;3.96;75.02;102653.09;5025926;28;20048;-82
2024/01/24 06:18:58;;;;;;;29.35;17.45;;;;;;;3.96;75.00;102658.34;4981544;28;20125;-82
2024/01/24 06:21:25;;;;;;;26.35;18.70;;;;;;;3.89;75.23;102657.66;5005700;28;20060;-83
2024/01/24 06:23:52;;;;;;;24.40;18.30;;;;;;;3.96;75.54;102680.22;5010341;28;20057;-83
2024/01/24 06:26:21;;;;;;;33.05;16.23;;;;;;;3.83;75.64;102652.56;5009915;28;20346;-84
2024/01/24 06:28:48;;;;;;;27.70;17.90;;;;;;;3.88;75.16;102650.66;5007223;28;20491;-82
2024/01/24 06:31:15;;;;;;;30.83;20.25;;;;;;;3.97;74.99;102666.16;4990416;28;20085;-82
2024/01/24 06:33:42;;;;;;;30.08;18.85;;;;;;;4.06;74.81;102686.94;4989745;28;20099;-82
2024/01/24 06:36:09;;;;;;;28.88;19.15;;;;;;;3.86;75.45;102647.22;4987014;28;20053;-83
2024/01/24 06:38:35;;;;;;;28.85;18.15;;;;;;;3.38;74.96;102587.25;4993666;28;20393;-82
2024/01/24 06:41:05;;;;;;;32.80;20.80;;;;;;;3.73;75.54;102649.31;4988234;28;20088;-82
2024/01/24 06:43:32;;;;;;;30.30;19.50;;;;;;;3.80;75.68;102663.16;4992056;28;20045;-82
2024/01/24 06:46:02;;;;;;;32.92;20.48;;;;;;;3.92;75.57;102670.69;4992134;28;20318;-83
2024/01/24 06:48:29;;;;;;;27.88;19.23;;;;;;;3.33;75.81;102586.53;4995269;28;20050;-82
2024/01/24 06:50:59;;;;;;;29.52;19.25;;;;;;;3.88;75.67;102681.34;4994520;28;20037;-82
2024/01/24 06:53:32;;;;;;;35.30;19.70;;;;;;;3.87;75.82;102675.22;5001372;28;20045;-82
2024/01/24 06:55:59;;;;;;;27.80;19.77;;;;;;;3.85;76.00;102661.25;4999371;28;20049;-83
2024/01/24 06:58:26;;;;;;;32.08;19.80;;;;;;;3.98;75.91;102673.16;4996412;28;20056;-80
2024/01/24 07:00:52;;;;;;;30.05;18.88;;;;;;;3.80;76.41;102631.63;5004457;28;20050;-80
2024/01/24 07:03:20;;;;;;;28.70;20.05;;;;;;;3.81;76.67;102655.25;5007543;28;20681;-82
2024/01/24 07:05:49;;;;;;;35.80;21.50;;;;;;;3.56;76.73;102602.50;4966241;28;20405;-81
2024/01/24 07:08:23;;;;;;;28.42;18.52;;;;;;;3.97;76.29;102666.16;4975252;28;20118;-83
2024/01/24 07:10:54;;;;;;;31.77;19.40;;;;;;;3.52;76.48;102585.13;4980524;28;20050;-81
2024/01/24 07:13:21;;;;;;;29.88;18.80;;;;;;;4.13;76.13;102676.28;4990924;28;20410;-83
2024/01/24 07:15:48;;;;;;;24.45;18.20;;;;;;;4.11;75.62;102675.44;4984058;28;20042;-81
2024/01/24 07:18:15;;;;;;;34.17;23.55;;;;;;;4.16;76.06;102691.94;4983474;28;20057;-82
2024/01/24 07:20:43;;;;;;;33.63;20.33;;;;;;;4.15;76.01;102695.47;4995785;28;20053;-80
2024/01/24 07:23:09;;;;;;;38.95;20.23;;;;;;;4.11;76.65;102688.59;4995896;28;20051;-81
2024/01/24 07:25:36;;;;;;;30.60;19.02;;;;;;;3.97;76.49;102674.06;5006708;28;20467;-81
2024/01/24 07:28:03;;;;;;;28.90;18.33;;;;;;;3.96;77.12;102661.84;4993422;28;20038;-82
2024/01/24 07:30:31;;;;;;;29.80;19.65;;;;;;;3.96;76.39;102648.69;4996081;28;20383;-81
2024/01/24 07:32:59;;;;;;;33.72;19.70;;;;;;;4.15;76.49;102679.69;4989954;28;20358;-83
2024/01/24 07:35:26;;;;;;;36.38;19.92;;;;;;;4.17;76.74;102686.63;4983609;28;20140;-81
2024/01/24 07:37:53;;;;;;;38.92;19.25;;;;;;;4.24;76.81;102695.19;4993686;28;20308;-81
2024/01/24 07:40:20;;;;;;;26.55;18.92;;;;;;;4.05;76.92;102653.69;4985795;28;20443;-81
2024/01/24 07:42:50;;;;;;;31.98;19.65;;;;;;;4.33;76.25;102692.31;4984839;28;20042;-80
2024/01/24 07:45:18;;;;;;;30.00;19.08;;;;;;;4.11;76.07;102638.66;4984821;28;20061;-82
2024/01/24 07:47:50;;;;;;;26.15;17.50;;;;;;;4.36;76.07;102678.22;4989674;28;20068;-82
2024/01/24 07:50:17;;;;;;;;;;;;;;;4.37;75.67;102696.59;4982269;28;20081;-83
2024/01/24 07:52:44;;;;;;;23.75;18.08;;;;;;;4.39;76.04;102681.59;5007906;28;19931;-81
2024/01/24 07:55:14;;;;;;;26.40;17.50;;;;;;;4.41;75.61;102682.41;4988756;28;20494;-83
2024/01/24 07:57:50;;;;;;;26.42;18.02;;;;;;;4.35;75.96;102668.59;4974284;28;20354;-80
2024/01/24 08:00:18;;;;;;;25.52;18.58;;;;;;;4.42;75.81;102673.63;4968718;28;20054;-79
2024/01/24 08:02:45;;;;;;;34.20;16.95;;;;;;;4.44;75.39;102663.94;4989022;28;20328;-83
2024/01/24 08:05:16;;;;;;;26.55;15.93;;;;;;;3.94;74.98;102571.66;4995582;28;20364;-83
2024/01/24 08:07:43;;;;;;;24.48;16.77;;;;;;;4.64;75.27;102694.03;4973779;28;20128;-83
2024/01/24 08:10:15;;;;;;;26.65;17.35;;;;;;;4.62;76.03;102691.44;4969686;28;20049;-82
2024/01/24 08:12:47;;;;;;;24.63;16.05;;;;;;;3.90;75.73;102553.41;4987435;28;20631;-83
2024/01/24 08:15:22;;;;;;;30.33;15.88;;;;;;;4.82;74.80;102695.22;4980397;28;20495;-83
2024/01/24 08:17:49;;;;;;;32.90;16.70;;;;;;;4.58;73.91;102637.19;4991437;28;20123;-81
2024/01/24 08:20:19;;;;;;;24.67;17.27;;;;;;;5.07;73.15;102683.00;4989540;28;20092;-82
2024/01/24 08:22:46;;;;;;;32.25;19.13;;;;;;;5.15;71.96;102680.13;4981181;28;20060;-82
2024/01/24 08:25:13;;;;;;;28.70;18.17;;;;;;;5.03;71.45;102655.06;4996222;28;20054;-82
2024/01/24 08:27:40;;;;;;;31.42;19.48;;;;;;;5.31;71.18;102686.56;4990770;28;20041;-82
2024/01/24 08:30:12;;;;;;;30.42;20.33;;;;;;;5.18;70.88;102637.03;4995957;28;20434;-82
2024/01/24 08:32:41;;;;;;;39.53;24.77;;;;;;;5.56;70.36;102665.53;4978724;28;20119;-81
2024/01/24 08:35:08;;;;;;;41.30;27.48;;;;;;;5.25;69.36;102602.53;4987426;28;20419;-83
2024/01/24 08:37:35;;;;;;;34.67;25.90;;;;;;;5.80;68.07;102670.84;4988755;28;20049;-83
2024/01/24 08:40:05;;;;;;;37.10;25.10;;;;;;;5.60;68.03;102633.81;4989672;28;20130;-82
2024/01/24 08:42:32;;;;;;;35.83;25.13;;;;;;;5.78;67.63;102673.56;5006587;28;20414;-82
2024/01/24 08:44:59;;;;;;;34.08;24.33;;;;;;;5.90;67.45;102687.22;4988666;28;20048;-82
2024/01/24 08:47:26;;;;;;;36.72;23.50;;;;;;;5.52;67.61;102611.22;4988772;28;20160;-82
2024/01/24 08:49:53;;;;;;;38.90;25.05;;;;;;;5.97;66.74;102663.25;5003181;28;20184;-83
2024/01/24 08:52:26;;;;;;;36.92;25.15;;;;;;;5.34;65.76;102539.00;4988797;28;20290;-80
2024/01/24 08:54:58;;;;;;;37.75;25.65;;;;;;;5.30;66.17;102529.47;4981833;28;20275;-83
2024/01/24 08:57:26;;;;;;;40.25;26.95;;;;;;;5.35;66.28;102532.81;4991819;28;20091;-80
2024/01/24 08:59:53;;;;;;;41.33;28.58;;;;;;;6.31;65.87;102669.91;4988481;28;20049;-82
2024/01/24 09:02:22;;;;;;;38.50;28.73;;;;;;;6.09;65.34;102632.03;4979354;28;20061;-81
2024/01/24 09:04:52;;;;;;;48.10;30.83;;;;;;;6.11;65.45;102636.34;4968496;28;20072;-83
2024/01/24 09:07:25;;;;;;;41.00;29.52;;;;;;;6.09;65.70;102643.47;4986754;28;20295;-81
2024/01/24 09:09:52;;;;;;;41.10;28.33;;;;;;;6.22;65.15;102656.19;4956239;28;20038;-82
2024/01/24 09:12:19;;;;;;;44.63;28.92;;;;;;;6.30;65.31;102683.13;4978884;28;20058;-81
2024/01/24 09:14:46;;;;;;;40.63;28.17;;;;;;;6.35;64.45;102691.72;4982128;28;20053;-83
2024/01/24 09:17:13;;;;;;;46.75;30.88;;;;;;;6.40;64.41;102689.78;4972672;28;20480;-81
2024/01/24 09:19:40;;;;;;;42.58;28.55;;;;;;;6.26;64.23;102655.13;4973882;28;20488;-83
2024/01/24 09:22:11;;;;;;;40.53;28.90;;;;;;;6.30;64.28;102685.78;4975462;28;20050;-80
2024/01/24 09:24:38;;;;;;;44.55;29.58;;;;;;;6.18;64.71;102669.47;4959978;28;20046;-81
2024/01/24 09:27:05;;;;;;;41.33;28.30;;;;;;;6.40;64.85;102685.34;4991385;28;20045;-80
2024/01/24 09:29:32;;;;;;;38.80;28.38;;;;;;;6.47;64.41;102701.81;4960994;28;20054;-82
2024/01/24 09:31:59;;;;;;;38.65;26.90;;;;;;;6.44;64.28;102704.56;4991210;28;20042;-80
2024/01/24 09:34:26;;;;;;;46.22;28.65;;;;;;;6.49;63.95;102694.72;4974417;28;20125;-82
2024/01/24 09:36:54;;;;;;;44.85;28.88;;;;;;;6.57;64.22;102694.41;4970296;28;20096;-80
2024/01/24 09:39:22;;;;;;;44.17;28.88;;;;;;;6.59;64.22;102690.78;4969052;28;20061;-81
2024/01/24 09:41:51;;;;;;;42.90;30.48;;;;;;;6.73;63.58;102686.75;4986318;28;20122;-79
2024/01/24 09:44:19;;;;;;;42.28;27.05;;;;;;;6.73;64.00;102670.94;4955755;28;20459;-80
2024/01/24 09:46:49;;;;;;;48.53;29.65;;;;;;;6.79;63.08;102665.38;4980368;28;20045;-83
2024/01/24 09:49:18;;;;;;;49.30;30.20;;;;;;;6.91;63.25;102707.13;4979919;28;20079;-81
2024/01/24 09:51:50;;;;;;;43.05;31.27;;;;;;;6.93;63.04;102721.13;4977905;28;20053;-82
2024/01/24 09:54:18;;;;;;;44.60;30.08;;;;;;;6.93;62.89;102710.56;4988852;28;20481;-81
2024/01/24 09:56:48;;;;;;;50.20;30.05;;;;;;;6.99;62.60;102705.06;4968012;28;20046;-82
2024/01/24 09:59:15;;;;;;;49.47;32.63;;;;;;;6.96;63.14;102681.41;4959304;28;20104;-82
2024/01/24 10:01:44;;;;;;;50.42;30.95;;;;;;;6.25;63.61;102542.66;4963979;28;20046;-80
2024/01/24 10:04:14;;;;;;;42.88;30.63;;;;;;;7.06;63.80;102656.34;4996843;28;20046;-82
2024/01/24 10:06:43;;;;;;;49.97;31.90;;;;;;;7.18;63.80;102652.31;4991566;28;20273;-82
2024/01/24 10:09:09;;;;;;;55.05;32.60;;;;;;;7.28;63.59;102644.88;4986898;28;20613;-82
2024/01/24 10:11:38;;;;;;;49.72;34.72;;;;;;;7.34;63.15;102628.75;4987644;28;20324;-82
2024/01/24 10:14:06;;;;;;;49.50;34.53;;;;;;;6.94;62.10;102547.72;4990190;28;20057;-82
2024/01/24 10:16:42;;;;;;;48.75;33.63;;;;;;;7.56;62.54;102643.69;4959104;28;20045;-80
2024/01/24 10:19:14;;;;;;;54.53;37.08;;;;;;;7.52;61.61;102615.66;4930991;28;20126;-80
2024/01/24 10:21:44;;;;;;;55.53;37.22;;;;;;;7.60;61.71;102634.72;4979747;28;20897;-80
2024/01/24 10:24:11;;;;;;;57.97;38.45;;;;;;;7.55;61.38;102615.53;4955691;28;20053;-82
2024/01/24 10:26:38;;;;;;;55.83;38.95;;;;;;;7.53;61.66;102614.75;4973335;28;20046;-80
2024/01/24 10:29:09;;;;;;;61.72;39.65;;;;;;;7.65;61.34;102608.94;4982196;28;20389;-79
2024/01/24 10:31:37;;;;;;;62.35;39.28;;;;;;;7.67;61.64;102593.84;4986423;28;20054;-78
2024/01/24 10:34:04;;;;;;;55.25;41.85;;;;;;;7.66;61.24;102579.75;5006705;28;20120;-80
2024/01/24 10:36:32;;;;;;;53.47;39.58;;;;;;;7.57;61.41;102581.97;5006273;28;20045;-80
2024/01/24 10:39:08;;;;;;;66.32;41.92;;;;;;;7.30;61.89;102516.19;4978796;28;20399;-80
2024/01/24 10:41:43;;;;;;;57.58;40.35;;;;;;;7.73;61.74;102584.78;4977189;28;20467;-79
2024/01/24 10:44:16;;;;;;;58.42;41.05;;;;;;;7.74;61.64;102571.47;4984873;28;20648;-80
2024/01/24 10:46:44;;;;;;;58.60;42.25;;;;;;;7.73;61.66;102542.50;4996431;28;20057;-80
2024/01/24 10:49:13;;;;;;;55.75;39.45;;;;;;;7.74;61.73;102545.03;4992276;28;20046;-79
2024/01/24 10:51:55;;;;;;;60.10;42.25;;;;;;;7.22;61.90;102457.59;4999975;28;20053;-80
2024/01/24 10:54:26;;;;;;;59.17;42.90;;;;;;;7.84;61.97;102538.44;4978079;28;20045;-77
2024/01/24 10:56:56;;;;;;;70.72;45.60;;;;;;;7.87;61.58;102548.84;4975395;28;20041;-79
2024/01/24 10:59:34;;;;;;;62.85;44.63;;;;;;;7.87;61.23;102530.34;5013912;28;20507;-82
2024/01/24 11:02:01;;;;;;;65.75;44.10;;;;;;;7.77;61.38;102509.66;4999088;28;20049;-81
2024/01/24 11:04:33;;;;;;;64.43;43.88;;;;;;;7.92;61.72;102535.41;4975016;28;20140;-81
2024/01/24 11:07:06;;;;;;;60.00;42.92;;;;;;;8.05;62.41;102533.03;4971106;28;20156;-80
2024/01/24 11:10:01;;;;;;;61.17;45.25;;;;;;;8.13;61.52;102515.00;4997630;28;20499;-80
2024/01/24 11:12:28;;;;;;;73.18;46.08;;;;;;;8.25;61.28;102490.63;4964457;28;20054;-81
2024/01/24 11:15:08;;;;;;;61.63;45.45;;;;;;;7.43;60.14;102347.41;4974386;28;20403;-80
2024/01/24 11:17:37;;;;;;;70.30;45.00;;;;;;;8.24;61.39;102480.97;4978345;28;20050;-80
2024/01/24 11:20:10;;;;;;;66.20;43.83;;;;;;;8.42;61.92;102510.97;4962761;28;20054;-82
2024/01/24 11:22:38;;;;;;;66.63;45.00;;;;;;;8.40;61.18;102502.28;4973645;28;20046;-80
2024/01/24 11:25:11;;;;;;;59.33;43.83;;;;;;;8.24;61.16;102478.31;4961853;28;20260;-81
2024/01/24 11:27:41;;;;;;;;;;;;;;;8.46;60.92;102516.97;4959946;28;20133;-82